createdAt,value
2022-11-09T00:01:47.449Z,18.50
2022-11-09T00:04:16.531Z,18.60
2022-11-09T00:06:44.496Z,18.60
2022-11-09T00:09:12.260Z,18.70
2022-11-09T00:11:40.112Z,18.70
2022-11-09T00:14:07.901Z,18.70
2022-11-09T00:16:35.730Z,18.70
2022-11-09T00:19:03.447Z,18.60
2022-11-09T00:21:32.580Z,18.50
2022-11-09T00:24:00.366Z,18.60
2022-11-09T00:26:28.095Z,18.60
2022-11-09T00:28:55.913Z,18.60
2022-11-09T00:31:25.332Z,18.50
2022-11-09T00:33:55.594Z,18.50
2022-11-09T00:36:24.831Z,18.50
2022-11-09T00:38:55.305Z,18.50
2022-11-09T00:41:23.348Z,18.50
2022-11-09T00:43:51.740Z,18.50
2022-11-09T00:46:19.832Z,18.50
2022-11-09T00:48:48.207Z,18.50
2022-11-09T00:51:16.255Z,18.40
2022-11-09T00:53:44.132Z,18.30
2022-11-09T00:56:14.381Z,18.40
2022-11-09T00:58:42.469Z,18.30
2022-11-09T01:01:12.216Z,18.40
2022-11-09T01:03:40.378Z,18.30
2022-11-09T01:06:08.629Z,18.30
2022-11-09T01:08:37.321Z,18.40
2022-11-09T01:11:07.260Z,18.30
2022-11-09T01:13:37.313Z,18.30
2022-11-09T01:16:07.602Z,18.40
2022-11-09T01:18:35.637Z,18.30
2022-11-09T01:21:04.772Z,18.40
2022-11-09T01:23:33.036Z,18.30
2022-11-09T01:26:01.657Z,18.10
2022-11-09T01:28:29.428Z,18.30
2022-11-09T01:31:02.418Z,18.30
2022-11-09T01:33:30.697Z,18.20
2022-11-09T01:36:03.022Z,18.20
2022-11-09T01:38:30.766Z,18.20
2022-11-09T01:40:58.540Z,18.20
2022-11-09T01:43:26.659Z,18.30
2022-11-09T01:45:57.645Z,18.40
2022-11-09T01:48:33.682Z,18.30
2022-11-09T01:51:06.872Z,18.20
2022-11-09T01:53:38.381Z,18.20
2022-11-09T01:56:09.209Z,18.30
2022-11-09T01:58:41.976Z,18.30
2022-11-09T02:01:11.351Z,18.10
2022-11-09T02:03:43.696Z,18.30
2022-11-09T02:06:15.124Z,18.20
2022-11-09T02:08:43.977Z,18.30
2022-11-09T02:11:13.287Z,18.40
2022-11-09T02:13:45.498Z,18.40
2022-11-09T02:16:14.952Z,18.20
2022-11-09T02:18:53.043Z,18.30
2022-11-09T02:21:23.738Z,18.30
2022-11-09T02:23:52.212Z,18.30
2022-11-09T02:26:24.571Z,18.30
2022-11-09T02:28:54.309Z,18.30
2022-11-09T02:31:26.070Z,18.30
2022-11-09T02:34:00.963Z,18.30
2022-11-09T02:36:30.117Z,18.20
2022-11-09T02:38:58.810Z,18.30
2022-11-09T02:41:27.617Z,18.40
2022-11-09T02:43:56.239Z,18.40
2022-11-09T02:46:26.573Z,18.40
2022-11-09T02:48:54.307Z,18.40
2022-11-09T02:51:22.023Z,18.40
2022-11-09T02:53:51.095Z,18.40
2022-11-09T02:56:18.865Z,18.30
2022-11-09T02:58:46.613Z,18.40
2022-11-09T03:01:14.372Z,18.30
2022-11-09T03:03:42.189Z,18.20
2022-11-09T03:06:10.037Z,18.40
2022-11-09T03:08:37.800Z,18.40
2022-11-09T03:11:07.183Z,18.50
2022-11-09T03:13:35.644Z,18.50
2022-11-09T03:16:06.521Z,18.40
2022-11-09T03:18:34.426Z,18.50
2022-11-09T03:21:03.137Z,18.40
2022-11-09T03:23:30.970Z,18.40
2022-11-09T03:25:58.871Z,18.50
2022-11-09T03:28:28.071Z,18.50
2022-11-09T03:30:55.921Z,18.50
2022-11-09T03:33:23.687Z,18.40
2022-11-09T03:35:52.215Z,18.50
2022-11-09T03:38:20.172Z,18.50
2022-11-09T03:40:47.952Z,18.40
2022-11-09T03:43:15.851Z,18.50
2022-11-09T03:45:45.062Z,18.60
2022-11-09T03:48:12.760Z,18.70
2022-11-09T03:50:40.560Z,18.70
2022-11-09T03:53:09.546Z,18.70
2022-11-09T03:55:37.992Z,18.70
2022-11-09T03:58:06.423Z,18.60
2022-11-09T04:00:35.835Z,18.50
2022-11-09T04:03:04.991Z,18.50
2022-11-09T04:05:32.725Z,18.50
2022-11-09T04:08:00.454Z,18.30
2022-11-09T04:10:28.325Z,18.30
2022-11-09T04:12:56.056Z,18.30
2022-11-09T04:15:23.926Z,18.30
2022-11-09T04:17:58.721Z,18.30
2022-11-09T04:20:29.027Z,18.30
2022-11-09T04:22:57.621Z,18.30
2022-11-09T04:25:25.898Z,18.30
2022-11-09T04:27:56.920Z,18.20
2022-11-09T04:30:27.784Z,18.20
2022-11-09T04:32:55.753Z,18.20
2022-11-09T04:35:23.704Z,18.20
2022-11-09T04:37:56.913Z,18.30
2022-11-09T04:40:26.107Z,18.20
2022-11-09T04:42:54.104Z,18.20
2022-11-09T04:45:22.621Z,18.00
2022-11-09T04:47:50.340Z,18.10
2022-11-09T04:50:18.217Z,18.20
2022-11-09T04:52:45.957Z,18.10
2022-11-09T04:55:15.068Z,18.30
2022-11-09T04:57:42.787Z,18.40
2022-11-09T05:00:11.689Z,18.40
2022-11-09T05:02:39.425Z,18.50
2022-11-09T05:05:08.264Z,18.50
2022-11-09T05:07:35.981Z,18.60
2022-11-09T05:10:03.682Z,18.60
2022-11-09T05:12:32.782Z,18.80
2022-11-09T05:15:00.535Z,18.80
2022-11-09T05:17:28.252Z,18.80
2022-11-09T05:19:56.208Z,18.60
2022-11-09T05:22:41.248Z,18.70
2022-11-09T05:25:09.655Z,18.80
2022-11-09T05:27:39.370Z,18.80
2022-11-09T05:30:08.471Z,18.70
2022-11-09T05:32:37.605Z,18.60
2022-11-09T05:35:05.867Z,18.50
2022-11-09T05:37:33.611Z,18.60
2022-11-09T05:40:01.445Z,18.50
2022-11-09T05:42:29.160Z,18.50
2022-11-09T05:45:10.902Z,18.60
2022-11-09T05:47:46.473Z,18.50
2022-11-09T05:50:17.764Z,18.40
2022-11-09T05:52:45.491Z,18.50
2022-11-09T05:55:13.255Z,18.50
2022-11-09T05:57:41.091Z,18.30
2022-11-09T06:00:11.765Z,18.10
2022-11-09T06:02:39.486Z,17.90
2022-11-09T06:05:07.755Z,17.90
2022-11-09T06:07:35.501Z,17.90
2022-11-09T06:10:03.328Z,18.00
2022-11-09T06:12:31.041Z,17.80
2022-11-09T06:14:58.810Z,17.80
2022-11-09T06:17:28.204Z,17.80
2022-11-09T06:19:55.939Z,17.50
2022-11-09T06:22:23.706Z,17.50
2022-11-09T06:24:51.488Z,17.40
2022-11-09T06:27:19.214Z,17.40
2022-11-09T06:29:47.086Z,17.30
2022-11-09T06:32:14.814Z,17.30
2022-11-09T06:34:44.291Z,17.30
2022-11-09T06:37:12.036Z,17.20
2022-11-09T06:39:39.771Z,17.40
2022-11-09T06:42:07.574Z,17.40
2022-11-09T06:44:35.378Z,17.40
2022-11-09T06:47:03.132Z,17.50
2022-11-09T06:49:30.967Z,17.60
2022-11-09T06:52:00.019Z,17.60
2022-11-09T06:54:28.082Z,17.40
2022-11-09T06:56:56.038Z,17.50
2022-11-09T06:59:24.021Z,17.50
2022-11-09T07:01:52.029Z,17.50
2022-11-09T07:04:19.814Z,17.60
2022-11-09T07:06:47.633Z,17.40
2022-11-09T07:09:16.777Z,17.40
2022-11-09T07:11:44.549Z,17.50
2022-11-09T07:14:12.251Z,17.30
2022-11-09T07:16:40.181Z,17.40
2022-11-09T07:19:07.928Z,17.50
2022-11-09T07:21:35.665Z,17.50
2022-11-09T07:24:03.425Z,17.50
2022-11-09T07:26:33.025Z,17.50
2022-11-09T07:29:00.759Z,17.40
2022-11-09T07:31:29.374Z,17.60
2022-11-09T07:33:58.344Z,17.60
2022-11-09T07:36:26.098Z,17.70
2022-11-09T07:38:53.837Z,17.90
2022-11-09T07:41:21.646Z,17.80
2022-11-09T07:43:51.107Z,17.90
2022-11-09T07:46:18.972Z,18.00
2022-11-09T07:48:46.666Z,18.00
2022-11-09T07:51:14.416Z,18.00
2022-11-09T07:53:42.133Z,18.10
2022-11-09T07:56:10.157Z,18.10
2022-11-09T07:58:37.957Z,18.30
2022-11-09T08:01:10.131Z,18.30
2022-11-09T08:03:38.110Z,18.30
2022-11-09T08:06:06.021Z,18.30
2022-11-09T08:08:33.781Z,18.40
2022-11-09T08:11:01.697Z,18.40
2022-11-09T08:13:29.389Z,18.20
2022-11-09T08:15:57.491Z,18.10
2022-11-09T08:18:26.579Z,18.20
2022-11-09T08:20:54.311Z,18.20
2022-11-09T08:23:22.614Z,18.20
2022-11-09T08:25:51.791Z,18.10
2022-11-09T08:28:19.897Z,18.10
2022-11-09T08:30:57.025Z,18.00
2022-11-09T08:33:26.274Z,18.10
2022-11-09T08:35:54.100Z,18.00
2022-11-09T08:38:22.393Z,18.00
2022-11-09T08:40:50.526Z,18.20
2022-11-09T08:43:18.459Z,18.10
2022-11-09T08:45:46.203Z,18.00
2022-11-09T08:48:14.111Z,18.20
2022-11-09T08:50:43.189Z,18.20
2022-11-09T08:53:10.916Z,18.30
2022-11-09T08:55:38.641Z,18.20
2022-11-09T08:58:06.375Z,18.30
2022-11-09T09:00:34.444Z,18.20
2022-11-09T09:03:05.708Z,18.30
2022-11-09T09:05:34.331Z,18.30
2022-11-09T09:08:04.832Z,17.80
2022-11-09T09:10:35.414Z,17.90
2022-11-09T09:13:03.553Z,18.00
2022-11-09T09:15:31.511Z,18.00
2022-11-09T09:18:00.684Z,18.10
2022-11-09T09:20:28.438Z,17.90
2022-11-09T09:22:59.167Z,17.80
2022-11-09T09:25:28.492Z,17.70
2022-11-09T09:27:56.545Z,17.60
2022-11-09T09:30:24.287Z,17.60
2022-11-09T09:32:52.030Z,17.70
2022-11-09T09:35:19.771Z,17.80
2022-11-09T09:37:47.510Z,17.80
2022-11-09T09:40:25.925Z,17.80
2022-11-09T09:42:56.041Z,17.80
2022-11-09T09:45:27.001Z,17.60
2022-11-09T09:47:59.896Z,17.50
2022-11-09T09:50:30.749Z,17.50
2022-11-09T09:53:23.213Z,17.40
2022-11-09T09:55:54.623Z,17.50
2022-11-09T09:58:27.555Z,17.30
2022-11-09T10:01:00.069Z,17.40
2022-11-09T10:03:27.860Z,17.40
2022-11-09T10:06:02.720Z,17.20
2022-11-09T10:08:41.417Z,17.30
2022-11-09T10:11:18.088Z,17.40
2022-11-09T10:14:02.048Z,17.40
2022-11-09T10:16:40.165Z,17.40
2022-11-09T10:19:29.196Z,17.50
2022-11-09T10:22:04.028Z,17.50
2022-11-09T10:24:58.783Z,17.60
2022-11-09T10:27:36.221Z,17.70
2022-11-09T10:30:13.381Z,17.80
2022-11-09T10:32:42.644Z,17.80
2022-11-09T10:35:18.338Z,17.80
2022-11-09T10:37:48.950Z,17.90
2022-11-09T10:40:20.668Z,18.00
2022-11-09T10:42:51.274Z,18.00
2022-11-09T10:45:29.222Z,17.90
2022-11-09T10:47:57.022Z,18.10
2022-11-09T10:50:32.202Z,18.00
2022-11-09T10:53:11.924Z,17.90
2022-11-09T10:55:40.096Z,17.80
2022-11-09T10:58:23.335Z,17.80
2022-11-09T11:01:07.589Z,17.80
2022-11-09T11:03:37.413Z,17.90
2022-11-09T11:06:06.909Z,17.90
2022-11-09T11:08:38.665Z,18.00
2022-11-09T11:11:33.855Z,18.30
2022-11-09T11:14:15.865Z,18.40
2022-11-09T11:16:48.327Z,18.50
2022-11-09T11:19:34.054Z,18.40
2022-11-09T11:22:22.683Z,18.30
2022-11-09T11:24:55.736Z,18.60
2022-11-09T11:27:28.912Z,18.60
2022-11-09T11:30:02.970Z,18.60
2022-11-09T11:32:33.060Z,18.80
2022-11-09T11:35:01.890Z,18.70
2022-11-09T11:37:47.318Z,18.50
2022-11-09T11:40:23.142Z,18.50
2022-11-09T11:43:05.720Z,18.50
2022-11-09T11:45:41.075Z,18.60
2022-11-09T11:48:31.130Z,18.50
2022-11-09T11:51:08.677Z,18.10
2022-11-09T11:53:52.257Z,18.30
2022-11-09T11:56:24.138Z,17.90
2022-11-09T11:59:10.961Z,18.10
2022-11-09T12:01:52.240Z,17.90
2022-11-09T12:04:41.328Z,18.30
2022-11-09T12:07:27.702Z,18.30
2022-11-09T12:10:15.165Z,18.30
2022-11-09T12:12:49.648Z,18.20
2022-11-09T12:15:37.377Z,18.20
2022-11-09T12:18:15.212Z,18.40
2022-11-09T12:20:54.332Z,17.90
2022-11-09T12:23:40.074Z,18.40
2022-11-09T12:26:24.060Z,18.20
2022-11-09T12:29:07.890Z,18.40
2022-11-09T12:31:49.364Z,18.40
2022-11-09T12:34:24.445Z,18.30
2022-11-09T12:36:58.733Z,18.50
2022-11-09T12:39:30.504Z,18.50
2022-11-09T12:42:05.055Z,18.50
2022-11-09T12:44:36.165Z,18.50
2022-11-09T12:47:08.335Z,18.40
2022-11-09T12:49:37.776Z,18.50
2022-11-09T12:52:11.709Z,18.70
2022-11-09T12:54:44.008Z,18.60
2022-11-09T12:57:15.732Z,18.50
2022-11-09T12:59:49.923Z,18.80
2022-11-09T13:02:25.154Z,18.70
2022-11-09T13:04:58.846Z,18.90
2022-11-09T13:07:38.947Z,18.90
2022-11-09T13:10:20.215Z,18.80
2022-11-09T13:12:48.090Z,18.80
2022-11-09T13:15:27.331Z,18.90
2022-11-09T13:18:03.025Z,18.90
2022-11-09T13:20:55.277Z,18.70
2022-11-09T13:23:59.099Z,18.80
2022-11-09T13:26:26.474Z,18.70
2022-11-09T13:29:25.395Z,18.90
2022-11-09T13:32:24.602Z,18.90
2022-11-09T13:34:56.090Z,18.70
2022-11-09T13:37:57.512Z,18.80
2022-11-09T13:40:44.689Z,18.80
2022-11-09T13:43:20.377Z,19.00
2022-11-09T13:45:50.682Z,18.90
2022-11-09T13:48:39.838Z,19.10
2022-11-09T13:51:10.155Z,19.10
2022-11-09T13:53:56.170Z,19.00
2022-11-09T13:56:35.099Z,19.10
2022-11-09T13:59:10.975Z,18.80
2022-11-09T14:01:48.489Z,19.20
2022-11-09T14:04:25.289Z,18.80
2022-11-09T14:07:00.563Z,19.00
2022-11-09T14:09:29.519Z,19.00
2022-11-09T14:12:17.060Z,19.00
2022-11-09T14:15:07.427Z,19.00
2022-11-09T14:17:42.952Z,19.00
2022-11-09T14:20:23.242Z,19.00
2022-11-09T14:22:52.506Z,19.20
2022-11-09T14:25:22.096Z,19.10
2022-11-09T14:27:57.272Z,19.20
2022-11-09T14:30:27.085Z,19.20
2022-11-09T14:32:56.842Z,19.20
2022-11-09T14:35:27.676Z,19.10
2022-11-09T14:37:56.630Z,19.10
2022-11-09T14:40:27.826Z,18.90
2022-11-09T14:42:59.637Z,19.10
2022-11-09T14:45:28.631Z,19.20
2022-11-09T14:47:58.859Z,19.10
2022-11-09T14:50:28.912Z,19.10
2022-11-09T14:52:57.516Z,19.00
2022-11-09T14:55:26.657Z,18.80
2022-11-09T14:57:57.874Z,18.90
2022-11-09T15:00:32.276Z,18.80
2022-11-09T15:03:01.316Z,18.70
2022-11-09T15:05:35.874Z,18.70
2022-11-09T15:08:03.763Z,18.80
2022-11-09T15:10:32.645Z,18.80
2022-11-09T15:13:04.207Z,18.80
2022-11-09T15:15:35.566Z,18.80
2022-11-09T15:18:03.535Z,18.70
2022-11-09T15:20:33.807Z,18.50
2022-11-09T15:23:06.794Z,18.60
2022-11-09T15:25:36.439Z,18.50
2022-11-09T15:28:20.528Z,18.60
2022-11-09T15:31:05.279Z,18.80
2022-11-09T15:33:45.201Z,18.70
2022-11-09T15:36:29.522Z,18.40
2022-11-09T15:39:00.864Z,18.50
2022-11-09T15:41:29.591Z,18.40
2022-11-09T15:43:59.200Z,18.20
2022-11-09T15:46:30.034Z,18.60
2022-11-09T15:49:00.085Z,18.60
2022-11-09T15:51:27.769Z,18.70
2022-11-09T15:53:55.545Z,18.70
2022-11-09T15:56:25.229Z,18.50
2022-11-09T15:58:53.480Z,18.60
2022-11-09T16:01:22.642Z,18.70
2022-11-09T16:03:50.391Z,18.40
2022-11-09T16:06:22.347Z,18.50
2022-11-09T16:08:51.055Z,18.40
2022-11-09T16:11:19.131Z,18.30
2022-11-09T16:13:46.812Z,18.30
2022-11-09T16:16:15.850Z,18.20
2022-11-09T16:18:44.917Z,17.90
2022-11-09T16:21:13.956Z,18.00
2022-11-09T16:23:41.731Z,18.10
2022-11-09T16:26:12.386Z,18.20
2022-11-09T16:28:40.794Z,18.20
2022-11-09T16:31:08.691Z,18.10
2022-11-09T16:33:37.109Z,18.20
2022-11-09T16:36:09.906Z,18.00
2022-11-09T16:38:41.112Z,18.10
2022-11-09T16:41:08.931Z,17.90
2022-11-09T16:43:37.769Z,17.90
2022-11-09T16:46:06.021Z,18.00
2022-11-09T16:48:34.922Z,18.00
2022-11-09T16:51:03.374Z,17.90
2022-11-09T16:53:32.546Z,17.80
2022-11-09T16:56:00.268Z,17.90
2022-11-09T16:58:28.012Z,17.90
2022-11-09T17:01:09.985Z,17.80
2022-11-09T17:03:39.641Z,17.90
2022-11-09T17:06:10.857Z,17.80
2022-11-09T17:08:40.305Z,17.80
2022-11-09T17:11:09.419Z,17.90
2022-11-09T17:13:37.535Z,17.80
2022-11-09T17:16:07.409Z,17.70
2022-11-09T17:18:35.158Z,17.70
2022-11-09T17:21:02.852Z,17.90
2022-11-09T17:23:31.500Z,17.80
2022-11-09T17:26:02.831Z,17.80
2022-11-09T17:28:30.690Z,17.80
2022-11-09T17:30:58.477Z,17.80
2022-11-09T17:33:26.256Z,17.70
2022-11-09T17:35:59.806Z,17.80
2022-11-09T17:38:27.563Z,17.70
2022-11-09T17:41:04.218Z,17.40
2022-11-09T17:43:33.067Z,17.50
2022-11-09T17:46:05.004Z,17.70
2022-11-09T17:48:33.103Z,17.60
2022-11-09T17:51:01.208Z,17.50
2022-11-09T17:53:29.640Z,17.50
2022-11-09T17:55:57.878Z,17.60
2022-11-09T17:58:27.081Z,17.30
2022-11-09T18:00:54.924Z,17.40
2022-11-09T18:03:23.183Z,17.40
2022-11-09T18:05:50.870Z,17.40
2022-11-09T18:08:18.923Z,17.40
2022-11-09T18:10:50.423Z,17.40
2022-11-09T18:13:18.107Z,17.40
2022-11-09T18:15:47.273Z,17.30
2022-11-09T18:18:14.945Z,17.20
2022-11-09T18:20:42.631Z,17.20
2022-11-09T18:23:10.367Z,17.30
2022-11-09T18:25:38.241Z,17.30
2022-11-09T18:28:06.277Z,17.20
2022-11-09T18:30:34.019Z,17.20
2022-11-09T18:33:03.569Z,17.10
2022-11-09T18:35:31.287Z,17.10
2022-11-09T18:37:58.983Z,17.00
2022-11-09T18:40:26.671Z,17.10
2022-11-09T18:42:54.347Z,17.00
2022-11-09T18:45:22.360Z,16.90
2022-11-09T18:47:50.444Z,16.80
2022-11-09T18:50:20.039Z,17.00
2022-11-09T18:52:47.689Z,16.90
2022-11-09T18:55:15.487Z,16.90
2022-11-09T18:57:43.132Z,16.70
2022-11-09T19:00:12.182Z,16.80
2022-11-09T19:02:40.076Z,16.90
2022-11-09T19:05:09.292Z,16.70
2022-11-09T19:07:38.306Z,16.70
2022-11-09T19:10:06.609Z,16.80
2022-11-09T19:12:34.275Z,16.80
2022-11-09T19:15:02.086Z,16.80
2022-11-09T19:17:29.841Z,16.80
2022-11-09T19:19:57.478Z,16.70
2022-11-09T19:22:28.634Z,16.80
2022-11-09T19:24:57.727Z,16.80
2022-11-09T19:27:28.707Z,16.80
2022-11-09T19:29:56.415Z,16.70
2022-11-09T19:32:24.131Z,16.80
2022-11-09T19:34:51.916Z,16.60
2022-11-09T19:37:19.629Z,16.60
2022-11-09T19:39:47.665Z,16.70
2022-11-09T19:42:16.757Z,16.80
2022-11-09T19:44:44.643Z,16.60
2022-11-09T19:47:12.385Z,16.70
2022-11-09T19:49:40.099Z,16.60
2022-11-09T19:52:08.312Z,16.60
2022-11-09T19:54:35.992Z,16.50
2022-11-09T19:57:03.713Z,16.20
2022-11-09T19:59:33.177Z,16.30
2022-11-09T20:02:00.840Z,16.40
2022-11-09T20:04:29.114Z,16.40
2022-11-09T20:06:56.904Z,16.20
2022-11-09T20:09:24.619Z,16.40
2022-11-09T20:12:09.986Z,16.40
2022-11-09T20:14:39.074Z,16.50
2022-11-09T20:17:06.795Z,16.30
2022-11-09T20:19:34.758Z,16.30
2022-11-09T20:22:02.520Z,16.20
2022-11-09T20:24:30.218Z,16.40
2022-11-09T20:26:57.949Z,16.50
2022-11-09T20:29:25.513Z,16.50
2022-11-09T20:31:54.477Z,16.60
2022-11-09T20:34:22.159Z,16.70
2022-11-09T20:36:49.889Z,16.60
2022-11-09T20:39:18.068Z,16.60
2022-11-09T20:41:45.835Z,16.60
2022-11-09T20:44:13.545Z,16.70
2022-11-09T20:46:41.229Z,16.70
2022-11-09T20:49:10.594Z,16.70
2022-11-09T20:51:38.405Z,16.60
2022-11-09T20:54:07.734Z,16.60
2022-11-09T20:56:37.262Z,16.70
2022-11-09T20:59:05.819Z,16.70
2022-11-09T21:01:33.772Z,16.70
2022-11-09T21:04:01.453Z,16.60
2022-11-09T21:06:31.244Z,16.90
2022-11-09T21:09:00.864Z,16.90
2022-11-09T21:11:35.541Z,16.90
2022-11-09T21:14:04.043Z,17.00
2022-11-09T21:16:31.761Z,16.90
2022-11-09T21:18:59.405Z,16.90
2022-11-09T21:21:29.755Z,16.70
2022-11-09T21:24:18.819Z,16.80
2022-11-09T21:27:04.248Z,16.80
2022-11-09T21:29:49.546Z,16.80
2022-11-09T21:32:17.776Z,16.80
2022-11-09T21:34:45.523Z,16.90
2022-11-09T21:37:14.944Z,16.90
2022-11-09T21:39:44.608Z,16.80
2022-11-09T21:42:13.384Z,16.80
2022-11-09T21:44:41.250Z,16.70
2022-11-09T21:47:09.382Z,16.70
2022-11-09T21:49:37.085Z,16.70
2022-11-09T21:52:04.936Z,16.60
2022-11-09T21:54:32.638Z,16.80
2022-11-09T21:57:01.728Z,16.70
2022-11-09T21:59:29.934Z,16.80
2022-11-09T22:01:57.813Z,16.70
2022-11-09T22:04:25.534Z,16.40
2022-11-09T22:06:53.482Z,16.60
2022-11-09T22:09:21.202Z,16.60
2022-11-09T22:12:06.549Z,16.60
2022-11-09T22:14:53.422Z,16.60
2022-11-09T22:17:21.256Z,16.80
2022-11-09T22:20:06.419Z,16.60
2022-11-09T22:22:36.176Z,16.70
2022-11-09T22:25:04.204Z,16.70
2022-11-09T22:27:32.664Z,16.60
2022-11-09T22:30:01.703Z,16.70
2022-11-09T22:32:29.350Z,16.70
2022-11-09T22:34:57.036Z,16.60
2022-11-09T22:37:24.752Z,16.50
2022-11-09T22:39:52.477Z,16.60
2022-11-09T22:42:20.324Z,16.50
2022-11-09T22:44:48.040Z,16.70
2022-11-09T22:47:17.060Z,16.50
2022-11-09T22:49:44.740Z,16.30
2022-11-09T22:52:12.398Z,16.50
2022-11-09T22:54:40.097Z,16.40
2022-11-09T22:57:07.873Z,16.60
2022-11-09T22:59:35.570Z,16.50
2022-11-09T23:02:03.274Z,16.60
2022-11-09T23:04:32.393Z,16.50
2022-11-09T23:07:00.089Z,16.70
2022-11-09T23:09:27.870Z,16.70
2022-11-09T23:11:56.318Z,16.50
2022-11-09T23:14:44.183Z,16.60
2022-11-09T23:17:25.760Z,16.60
2022-11-09T23:19:54.834Z,16.50
2022-11-09T23:22:22.483Z,16.60
2022-11-09T23:25:07.796Z,16.50
2022-11-09T23:27:35.510Z,16.60
2022-11-09T23:30:03.166Z,16.50
2022-11-09T23:32:30.806Z,16.60
2022-11-09T23:34:59.816Z,16.50
2022-11-09T23:37:27.540Z,16.60
2022-11-09T23:39:55.201Z,16.60
2022-11-09T23:42:22.964Z,16.60
2022-11-09T23:44:50.757Z,16.60
2022-11-09T23:47:18.480Z,16.40
2022-11-09T23:49:46.203Z,16.50
2022-11-09T23:52:15.244Z,16.50
2022-11-09T23:54:43.175Z,16.50
2022-11-09T23:57:10.855Z,16.60
2022-11-09T23:59:38.589Z,16.40
